Estación Meteorológica Peña el Pijo (Robertgarden) [ 02/02/23 21:49:01 CET ]

Fecha Hora Presion(HPa) Temp (°C) Humedad % Rocio (°C) Viento ( m/s) Direccion Lluvia 1Hora(mm) Lluvia 24H(mm) LLuvia Total(mm)
2010-Mar-13 01:01:13 1009.900 1.9 79 -1.4         100.49
2010-Mar-13 02:03:12 1010.200 1.8 80 -1.3         100.49
2010-Mar-13 03:01:13 1010.100 1.8 80 -1.3         100.49
2010-Mar-13 04:01:18 1009.600 1.6 78 -1.9         100.49
2010-Mar-13 05:01:16 1009.700 1.3 74 -2.9         100.49
2010-Mar-13 06:01:17 1010.000 1.1 73 -3.3         100.49
2010-Mar-13 07:01:13 1010.100 0.8 73 -3.5         100.49
2010-Mar-13 08:01:14 1010.500 0.6 74 -3.5         100.49
2010-Mar-13 09:01:13 1010.800 3.0 71 -1.7         100.49
2010-Mar-13 10:01:12 1011.400 5.4 63 -1.1         100.49
2010-Mar-13 11:01:14 1011.500 6.8 59 -0.7         100.49
2010-Mar-13 12:01:12 1011.400 7.3 51 -2.2         100.49
2010-Mar-13 13:01:13 1011.500 10.9 44 -0.9         100.49
2010-Mar-13 14:01:11 1011.200 10.9 41 -1.9         100.49
2010-Mar-13 15:01:14 1010.700 11.3 38 -2.6         100.49
2010-Mar-13 16:01:16 1010.800 8.9 44 -2.8         100.49
2010-Mar-13 17:01:13 1010.900 8.5 46 -2.5         100.49
2010-Mar-13 18:01:14 1011.400 7.3 49 -2.7         100.49
2010-Mar-13 19:01:21 1012.300 6.1 52 -3.0         100.49
2010-Mar-13 20:01:13 1013.200 4.8 56 -3.3         100.49
2010-Mar-13 21:01:11 1014.100 2.8 64 -3.4         100.49
2010-Mar-13 22:01:13 1014.600 0.6 73 -3.7         100.49
2010-Mar-13 23:01:14 1014.400 -0.4 78 -3.8         100.49

Temperatura Máxima:11°    Temperatura Mínima:
Presión Máxima:1014.600 Hpa    Presión Mínima:1009.600 Hpa


Volver